Time;durP1;ratioP1;P1;durP2;ratioP2;P2;SDS_P1;SDS_P2;PMS_P1;PMS_P2;Temp;Humidity;BMP_temperature;BMP_pressure;BME280_temperature;BME280_humidity;BME280_pressure;Samples;Min_cycle;Max_cycle;Signal;HPM_P1;HPM_P2
2021/10/13 00:01:17;;;;;;;8.48;4.20;;;;;;;22.61;45.85;102716.78;4859822;29;20022;-76
2021/10/13 00:03:42;;;;;;;7.22;4.30;;;;;;;22.54;46.07;102717.34;4859766;29;20062;-76
2021/10/13 00:06:08;;;;;;;6.15;4.25;;;;;;;22.56;46.07;102717.00;4843114;29;20033;-77
2021/10/13 00:08:33;;;;;;;11.75;4.65;;;;;;;22.53;45.99;102715.72;4859381;29;20041;-76
2021/10/13 00:10:59;;;;;;;8.60;5.18;;;;;;;22.56;46.13;102712.25;4842812;29;20401;-76
2021/10/13 00:13:24;;;;;;;7.00;4.45;;;;;;;22.57;46.01;102722.22;4859721;29;20029;-76
2021/10/13 00:15:50;;;;;;;8.55;4.88;;;;;;;22.59;45.88;102719.06;4859614;29;20021;-76
2021/10/13 00:18:16;;;;;;;6.72;4.75;;;;;;;22.60;45.85;102721.53;4859946;29;20109;-76
2021/10/13 00:20:41;;;;;;;10.05;5.28;;;;;;;22.57;46.26;102716.66;4859847;29;20029;-76
2021/10/13 00:23:07;;;;;;;10.30;5.00;;;;;;;22.51;46.26;102715.25;4859560;29;20551;-76
2021/10/13 00:25:32;;;;;;;8.52;4.97;;;;;;;22.50;46.27;102718.38;4859517;29;20402;-77
2021/10/13 00:27:58;;;;;;;5.47;4.70;;;;;;;22.51;46.21;102723.59;4842818;29;20037;-76
2021/10/13 00:30:24;;;;;;;9.15;5.57;;;;;;;22.50;46.06;102721.97;4859434;29;20037;-76
2021/10/13 00:32:50;;;;;;;9.45;5.88;;;;;;;22.49;46.32;102717.56;4859457;29;20029;-76
2021/10/13 00:35:15;;;;;;;7.10;5.20;;;;;;;22.43;46.42;102716.97;4842755;29;20493;-76
2021/10/13 00:37:41;;;;;;;6.93;4.53;;;;;;;22.50;46.30;102716.41;4859416;29;20112;-77
2021/10/13 00:40:07;;;;;;;9.13;4.45;;;;;;;22.53;46.16;102714.91;4859463;29;20512;-77
2021/10/13 00:42:33;;;;;;;6.97;4.57;;;;;;;22.51;45.94;102718.03;4859547;29;20034;-76
2021/10/13 00:44:58;;;;;;;9.98;4.43;;;;;;;22.53;46.11;102717.69;4859145;29;20061;-76
2021/10/13 00:47:24;;;;;;;4.97;3.78;;;;;;;22.46;46.13;102721.06;4859237;29;20137;-76
2021/10/13 00:49:50;;;;;;;6.68;3.75;;;;;;;22.43;46.23;102714.19;4859137;29;20075;-76
2021/10/13 00:52:18;;;;;;;5.75;3.90;;;;;;;22.40;46.21;102714.91;4859236;29;20030;-76
2021/10/13 00:54:44;;;;;;;6.60;3.97;;;;;;;22.42;46.09;102714.53;4842611;29;20389;-76
2021/10/13 00:57:10;;;;;;;5.88;4.10;;;;;;;22.45;46.04;102719.44;4859437;29;20030;-76
2021/10/13 00:59:36;;;;;;;7.88;5.30;;;;;;;22.37;46.14;102723.16;4859167;29;20036;-76
2021/10/13 01:02:04;;;;;;;10.77;5.38;;;;;;;22.42;46.08;102720.13;4860343;29;20030;-76
2021/10/13 01:04:49;;;;;;;10.40;4.68;;;;;;;22.48;45.85;102721.53;4862884;29;20086;-76
2021/10/13 01:07:36;;;;;;;8.00;4.65;;;;;;;22.46;45.88;102717.47;4862757;29;20413;-76
2021/10/13 01:10:23;;;;;;;7.47;4.07;;;;;;;22.41;45.96;102715.72;4862812;29;20101;-76
2021/10/13 01:13:07;;;;;;;7.25;3.92;;;;;;;22.32;45.98;102718.59;4862801;29;20038;-77
2021/10/13 01:15:59;;;;;;;6.95;4.20;;;;;;;22.40;45.64;102720.47;4862744;29;20026;-76
2021/10/13 01:18:39;;;;;;;8.32;3.95;;;;;;;22.41;45.78;102724.06;4862752;29;20092;-77
2021/10/13 01:21:10;;;;;;;;;;;;;;;22.35;46.05;102719.88;4863137;29;20721;-76
2021/10/13 01:23:57;;;;;;;7.40;4.10;;;;;;;22.30;45.95;102718.13;4862556;29;19912;-76
2021/10/13 01:26:31;;;;;;;6.45;4.15;;;;;;;22.33;45.76;102714.66;4845869;29;20557;-77
2021/10/13 01:29:02;;;;;;;8.23;4.18;;;;;;;22.28;46.19;102714.06;4862452;29;20116;-76
2021/10/13 01:31:42;;;;;;;5.97;3.83;;;;;;;22.31;46.07;102725.34;4862419;29;20057;-76
2021/10/13 01:34:15;;;;;;;8.63;4.80;;;;;;;22.31;45.94;102719.75;4862526;29;20037;-76
2021/10/13 01:36:46;;;;;;;6.93;3.70;;;;;;;23.74;42.29;102718.72;4862422;29;20030;-76
2021/10/13 01:39:12;;;;;;;6.13;4.32;;;;;;;23.98;41.62;102713.00;4862318;29;20040;-76
2021/10/13 01:41:46;;;;;;;9.25;5.03;;;;;;;24.08;41.61;102717.25;4862242;29;20037;-76
2021/10/13 01:44:15;;;;;;;8.70;4.85;;;;;;;24.09;41.67;102716.06;4861945;29;20113;-76
2021/10/13 01:46:46;;;;;;;4.80;3.50;;;;;;;24.11;41.57;102721.28;4862182;29;20485;-77
2021/10/13 01:49:13;;;;;;;7.88;4.18;;;;;;;24.09;41.61;102725.25;4862162;29;20482;-76
2021/10/13 01:51:41;;;;;;;7.78;4.53;;;;;;;24.06;41.66;102725.16;4862077;29;20037;-76
2021/10/13 01:54:08;;;;;;;5.75;3.22;;;;;;;23.98;41.83;102720.56;4862057;29;20072;-76
2021/10/13 01:56:37;;;;;;;6.00;3.38;;;;;;;23.98;41.43;102726.16;4862229;29;20046;-76
2021/10/13 01:59:09;;;;;;;6.85;3.45;;;;;;;24.00;41.77;102716.22;4862016;29;20112;-76
2021/10/13 02:01:38;;;;;;;5.75;3.72;;;;;;;24.04;41.60;102722.75;4861981;29;20069;-76
2021/10/13 02:04:07;;;;;;;5.38;3.63;;;;;;;24.03;41.34;102717.50;4861922;29;20036;-76
2021/10/13 02:06:35;;;;;;;5.07;2.75;;;;;;;23.98;41.53;102724.16;4861743;29;20037;-76
2021/10/13 02:09:02;;;;;;;4.93;2.67;;;;;;;24.00;41.24;102716.22;4845156;29;20041;-76
2021/10/13 02:11:30;;;;;;;4.43;2.40;;;;;;;23.88;41.29;102715.47;4861700;29;20062;-76
2021/10/13 02:13:59;;;;;;;4.38;2.28;;;;;;;23.86;41.66;102721.44;4861275;29;20392;-76
2021/10/13 02:16:27;;;;;;;4.32;2.20;;;;;;;23.87;41.42;102713.84;4861780;29;20029;-76
2021/10/13 02:18:55;;;;;;;5.95;2.30;;;;;;;23.84;41.45;102718.19;4845151;29;20033;-76
2021/10/13 02:21:24;;;;;;;1.80;1.38;;;;;;;23.87;41.33;102719.44;4861608;29;20034;-76
2021/10/13 02:23:53;;;;;;;2.88;1.50;;;;;;;23.93;41.20;102718.03;4861602;29;20081;-77
2021/10/13 02:26:26;;;;;;;4.28;1.65;;;;;;;23.98;40.98;102714.97;4861444;29;20548;-76
2021/10/13 02:28:58;;;;;;;4.90;1.95;;;;;;;24.02;40.39;102713.06;4861481;29;20081;-76
2021/10/13 02:31:24;;;;;;;4.88;1.70;;;;;;;24.15;40.46;102714.63;4861485;29;20025;-76
2021/10/13 02:33:50;;;;;;;5.50;2.03;;;;;;;24.14;40.16;102723.38;4861431;29;20037;-76
2021/10/13 02:36:16;;;;;;;2.75;1.75;;;;;;;23.98;40.48;102717.78;4861358;29;20389;-76
2021/10/13 02:38:41;;;;;;;2.70;1.90;;;;;;;23.93;40.63;102715.22;4861242;29;20029;-76
2021/10/13 02:41:07;;;;;;;7.25;2.72;;;;;;;23.89;40.72;102719.91;4861286;29;20032;-76
2021/10/13 02:43:35;;;;;;;5.40;2.35;;;;;;;23.99;40.42;102713.81;4861097;29;20046;-76
2021/10/13 02:46:18;;;;;;;4.13;1.92;;;;;;;24.02;39.90;102711.09;4861338;29;20033;-76
2021/10/13 02:48:53;;;;;;;3.80;2.25;;;;;;;23.97;40.42;102711.38;4861163;29;20051;-76
2021/10/13 02:51:39;;;;;;;5.22;2.25;;;;;;;23.97;40.23;102710.56;4861122;29;20089;-76
2021/10/13 02:54:16;;;;;;;4.47;2.40;;;;;;;23.87;40.26;102711.06;4861117;29;20229;-77
2021/10/13 02:56:48;;;;;;;4.95;2.10;;;;;;;23.67;40.29;102712.91;4861045;29;20045;-76
2021/10/13 02:59:23;;;;;;;5.93;2.30;;;;;;;23.73;40.00;102706.72;4860963;29;20039;-76
2021/10/13 03:01:54;;;;;;;5.50;2.55;;;;;;;23.72;39.74;102707.88;4860952;29;20544;-76
2021/10/13 03:04:25;;;;;;;3.88;2.15;;;;;;;23.76;39.76;102713.56;4860914;29;20029;-76
2021/10/13 03:07:04;;;;;;;6.22;2.13;;;;;;;23.82;39.62;102711.34;4844164;29;20140;-76
2021/10/13 03:09:34;;;;;;;2.88;2.05;;;;;;;23.78;39.56;102714.03;4860729;29;20026;-77
2021/10/13 03:12:08;;;;;;;4.30;2.25;;;;;;;23.71;39.93;102714.63;4861008;29;20057;-76
2021/10/13 03:14:37;;;;;;;5.25;2.40;;;;;;;23.82;39.60;102714.13;4860672;29;20506;-76
2021/10/13 03:17:04;;;;;;;4.93;2.63;;;;;;;23.85;39.19;102705.03;4860672;29;20065;-76
2021/10/13 03:19:35;;;;;;;4.20;2.10;;;;;;;23.83;39.17;102710.19;4860697;29;20116;-76
2021/10/13 03:22:02;;;;;;;3.13;2.05;;;;;;;23.88;38.94;102718.28;4860614;29;20037;-76
2021/10/13 03:24:28;;;;;;;7.00;2.50;;;;;;;23.92;39.23;102710.81;4860412;29;20548;-76
2021/10/13 03:26:53;;;;;;;5.28;2.40;;;;;;;23.95;39.17;102712.88;4859643;29;20124;-77
2021/10/13 03:29:19;;;;;;;3.08;2.15;;;;;;;23.98;38.73;102718.56;4860674;29;20105;-76
2021/10/13 03:31:46;;;;;;;4.90;2.30;;;;;;;23.98;39.05;102710.22;4860322;29;20037;-76
2021/10/13 03:34:15;;;;;;;3.15;2.30;;;;;;;23.96;38.74;102703.38;4860248;29;20037;-76
2021/10/13 03:36:47;;;;;;;5.10;2.70;;;;;;;23.90;39.00;102705.59;4843718;29;20073;-76
2021/10/13 03:39:14;;;;;;;4.97;2.97;;;;;;;23.95;38.92;102705.31;4860247;29;20029;-77
2021/10/13 03:41:40;;;;;;;5.22;2.47;;;;;;;23.99;38.75;102702.63;4860180;29;20112;-77
2021/10/13 03:44:06;;;;;;;4.75;2.47;;;;;;;23.98;38.91;102701.81;4859678;29;20540;-76
2021/10/13 03:46:32;;;;;;;4.63;2.50;;;;;;;23.95;38.86;102701.72;4860077;29;20049;-76
2021/10/13 03:48:57;;;;;;;3.67;2.38;;;;;;;23.95;39.22;102704.50;4843462;29;20461;-77
2021/10/13 03:51:23;;;;;;;5.00;2.55;;;;;;;23.97;39.09;102703.00;4859985;29;20112;-76
2021/10/13 03:53:49;;;;;;;4.53;2.65;;;;;;;23.93;39.05;102704.88;4859936;29;20037;-74
2021/10/13 03:56:17;;;;;;;5.47;2.78;;;;;;;23.95;38.97;102713.69;4862605;29;20407;-74
2021/10/13 03:58:42;;;;;;;4.43;2.65;;;;;;;23.92;38.86;102700.47;4866399;29;20025;-76
2021/10/13 04:01:08;;;;;;;4.03;2.38;;;;;;;23.88;39.14;102704.31;4868641;29;20490;-75
2021/10/13 04:03:34;;;;;;;7.43;3.22;;;;;;;23.91;39.26;102701.63;4869992;29;20080;-75
2021/10/13 04:06:00;;;;;;;4.43;2.85;;;;;;;23.85;39.35;102708.63;4867992;29;20382;-76
2021/10/13 04:08:26;;;;;;;4.85;2.72;;;;;;;23.83;39.48;102705.41;4868848;29;20029;-76
2021/10/13 04:10:51;;;;;;;4.50;2.55;;;;;;;23.88;39.40;102694.00;4869206;29;20026;-76
2021/10/13 04:13:17;;;;;;;5.65;2.60;;;;;;;23.86;39.32;102698.28;4867581;29;20022;-77
2021/10/13 04:15:42;;;;;;;3.20;2.33;;;;;;;23.86;39.33;102695.50;4869436;29;20376;-77
2021/10/13 04:18:08;;;;;;;5.22;2.72;;;;;;;23.86;38.98;102695.50;4868631;29;20029;-75
2021/10/13 04:20:34;;;;;;;6.35;2.78;;;;;;;23.83;39.34;102691.44;4867560;29;20021;-76
2021/10/13 04:22:59;;;;;;;6.75;3.58;;;;;;;23.75;39.60;102698.00;4867501;29;20033;-77
2021/10/13 04:25:25;;;;;;;6.97;3.13;;;;;;;23.82;39.55;102697.38;4868656;29;20031;-77
2021/10/13 04:27:51;;;;;;;6.20;2.92;;;;;;;23.92;39.11;102697.66;4869054;29;20033;-75
2021/10/13 04:30:17;;;;;;;7.65;3.90;;;;;;;23.94;39.25;102692.53;4867420;29;20025;-77
2021/10/13 04:32:43;;;;;;;6.35;2.63;;;;;;;23.93;39.18;102704.06;4869074;29;20515;-76
2021/10/13 04:35:10;;;;;;;5.95;2.88;;;;;;;23.97;39.18;102699.41;4870075;29;20550;-76
2021/10/13 04:37:36;;;;;;;4.00;2.60;;;;;;;23.93;39.20;102710.47;4848886;29;20049;-78
2021/10/13 04:40:03;;;;;;;7.07;3.05;;;;;;;23.88;39.19;102699.56;4869615;29;20025;-76
2021/10/13 04:42:28;;;;;;;4.72;3.10;;;;;;;23.91;39.07;102700.81;4868206;29;20036;-76
2021/10/13 04:44:54;;;;;;;3.85;2.92;;;;;;;23.86;39.61;102698.28;4868690;29;20041;-75
2021/10/13 04:47:19;;;;;;;5.72;3.20;;;;;;;23.76;39.81;102694.03;4869800;29;20044;-75
2021/10/13 04:49:45;;;;;;;7.32;3.63;;;;;;;23.78;39.44;102702.84;4868362;29;20030;-75
2021/10/13 04:52:10;;;;;;;6.22;2.80;;;;;;;23.75;39.22;102700.78;4869302;29;20621;-75
2021/10/13 04:54:36;;;;;;;4.45;3.75;;;;;;;23.73;39.87;102706.72;4869505;29;20030;-75
2021/10/13 04:57:02;;;;;;;5.57;2.75;;;;;;;23.77;39.49;102707.63;4870825;29;20484;-76
2021/10/13 04:59:27;;;;;;;3.75;2.30;;;;;;;23.76;39.77;102700.44;4878706;29;20077;-74
2021/10/13 05:01:53;;;;;;;5.68;3.67;;;;;;;23.76;39.56;102702.41;4873785;29;20029;-78
2021/10/13 05:04:19;;;;;;;8.13;3.45;;;;;;;23.70;39.96;102701.84;4860087;29;20041;-74
2021/10/13 05:06:45;;;;;;;7.53;3.15;;;;;;;23.66;39.93;102698.16;4859944;29;20033;-77
2021/10/13 05:09:11;;;;;;;7.18;3.47;;;;;;;23.76;39.82;102700.44;4860047;29;20109;-73
2021/10/13 05:11:37;;;;;;;6.68;3.38;;;;;;;23.72;39.88;102699.50;4859936;29;20060;-77
2021/10/13 05:14:02;;;;;;;7.72;3.60;;;;;;;23.78;40.02;102709.25;4859927;29;20057;-76
2021/10/13 05:16:28;;;;;;;10.43;3.65;;;;;;;23.75;39.72;102707.19;4860038;29;20033;-75
2021/10/13 05:18:54;;;;;;;9.65;4.07;;;;;;;23.65;40.33;102713.25;4859985;29;20108;-76
2021/10/13 05:21:19;;;;;;;4.18;3.08;;;;;;;23.67;40.23;102722.09;4859884;29;20025;-74
2021/10/13 05:23:45;;;;;;;12.60;6.10;;;;;;;23.66;40.04;102717.69;4859902;29;20097;-73
2021/10/13 05:26:11;;;;;;;6.72;3.95;;;;;;;23.65;40.04;102716.03;4859968;29;20034;-77
2021/10/13 05:28:36;;;;;;;6.45;4.00;;;;;;;23.67;40.31;102716.53;4859864;29;20026;-76
2021/10/13 05:31:02;;;;;;;4.85;3.60;;;;;;;23.65;40.05;102720.81;4860000;29;20481;-74
2021/10/13 05:33:28;;;;;;;8.93;3.92;;;;;;;23.58;40.29;102718.63;4859903;29;20061;-72
2021/10/13 05:35:54;;;;;;;10.02;4.22;;;;;;;23.59;40.52;102716.66;4859926;29;20021;-73
2021/10/13 05:38:20;;;;;;;7.55;4.65;;;;;;;23.58;40.25;102710.25;4859977;29;20029;-73
2021/10/13 05:40:45;;;;;;;7.38;3.55;;;;;;;23.63;40.40;102712.00;4859771;29;20500;-73
2021/10/13 05:43:11;;;;;;;13.43;5.07;;;;;;;23.59;40.46;102703.50;4859414;29;20058;-75
2021/10/13 05:45:36;;;;;;;7.78;4.45;;;;;;;23.62;40.16;102704.78;4859767;29;20120;-76
2021/10/13 05:48:02;;;;;;;6.93;5.18;;;;;;;23.62;40.17;102707.59;4859623;29;20030;-74
2021/10/13 05:50:28;;;;;;;10.40;4.82;;;;;;;23.58;40.47;102706.63;4862798;29;20034;-74
2021/10/13 05:52:53;;;;;;;5.57;4.25;;;;;;;23.64;40.13;102705.25;4862871;29;20033;-74
2021/10/13 05:55:19;;;;;;;7.38;4.70;;;;;;;23.57;40.68;102708.59;4846355;29;20061;-73
2021/10/13 05:57:45;;;;;;;4.90;4.05;;;;;;;23.59;40.55;102706.28;4862684;29;20033;-75
2021/10/13 06:00:11;;;;;;;5.78;4.32;;;;;;;23.60;40.61;102713.53;4862869;29;20494;-73
2021/10/13 06:02:37;;;;;;;8.68;5.45;;;;;;;23.57;40.57;102710.59;4862936;29;20054;-74
2021/10/13 06:05:03;;;;;;;10.48;5.65;;;;;;;23.61;40.53;102703.19;4862866;29;20034;-76
2021/10/13 06:07:29;;;;;;;11.57;5.15;;;;;;;23.52;40.63;102701.31;4862590;29;20041;-74
2021/10/13 06:09:55;;;;;;;7.07;4.80;;;;;;;23.49;40.73;102704.00;4862712;29;20102;-77
2021/10/13 06:12:20;;;;;;;12.45;5.40;;;;;;;23.50;40.58;102700.88;4862788;29;20033;-72
2021/10/13 06:14:46;;;;;;;9.77;5.07;;;;;;;23.49;40.48;102698.41;4862510;29;20064;-73
2021/10/13 06:17:12;;;;;;;8.88;5.85;;;;;;;23.51;40.47;102705.28;4862671;29;20366;-73
2021/10/13 06:19:37;;;;;;;9.20;4.78;;;;;;;23.45;40.80;102701.09;4863068;29;20108;-77
2021/10/13 06:22:03;;;;;;;28.27;12.32;;;;;;;23.49;40.44;102698.41;4862782;29;20426;-73
2021/10/13 06:24:29;;;;;;;10.23;5.75;;;;;;;23.43;40.95;102699.84;4862518;29;20034;-78
2021/10/13 06:26:54;;;;;;;7.05;4.57;;;;;;;23.45;40.68;102703.09;4862428;29;20041;-75
2021/10/13 06:29:20;;;;;;;6.97;4.97;;;;;;;23.49;40.83;102701.19;4862357;29;20033;-73
2021/10/13 06:31:46;;;;;;;18.70;6.53;;;;;;;23.46;40.45;102704.72;4862098;29;20030;-74
2021/10/13 06:34:14;;;;;;;8.45;5.00;;;;;;;23.46;40.61;102710.28;4865279;29;20520;-74
2021/10/13 06:36:40;;;;;;;8.38;5.50;;;;;;;23.34;40.75;102711.13;4862082;29;20069;-73
2021/10/13 06:39:06;;;;;;;11.75;4.95;;;;;;;23.26;40.90;102706.50;4862116;29;20030;-74
2021/10/13 06:41:32;;;;;;;11.02;5.72;;;;;;;23.35;40.79;102709.16;4861984;29;20041;-75
2021/10/13 06:43:57;;;;;;;7.10;4.72;;;;;;;23.35;40.73;102714.72;4876150;29;20056;-72
2021/10/13 06:46:23;;;;;;;7.45;4.63;;;;;;;23.38;40.66;102712.06;4861995;29;20033;-71
2021/10/13 06:48:49;;;;;;;9.32;7.50;;;;;;;23.41;40.70;102710.53;4862048;29;20026;-74
2021/10/13 06:51:14;;;;;;;11.38;4.88;;;;;;;23.36;40.79;102708.00;4862366;29;20037;-70
2021/10/13 06:53:42;;;;;;;11.15;5.28;;;;;;;23.35;40.98;102712.78;4861982;29;20025;-70
2021/10/13 06:56:09;;;;;;;12.30;4.80;;;;;;;23.31;41.12;102714.63;4861805;29;20057;-70
2021/10/13 06:58:34;;;;;;;9.32;4.50;;;;;;;23.34;40.99;102715.91;4861845;29;20029;-71
2021/10/13 07:01:00;;;;;;;8.85;5.03;;;;;;;23.39;40.75;102712.88;4861529;29;20036;-73
2021/10/13 07:03:26;;;;;;;7.38;4.32;;;;;;;23.38;40.72;102716.81;4861688;29;20143;-69
2021/10/13 07:05:51;;;;;;;12.77;5.43;;;;;;;23.41;40.67;102722.50;4861960;29;20033;-70
2021/10/13 07:08:17;;;;;;;11.95;5.55;;;;;;;23.38;40.96;102719.63;4861582;29;20493;-72
2021/10/13 07:10:42;;;;;;;5.78;4.15;;;;;;;23.41;40.55;102722.50;4861593;29;20033;-71
2021/10/13 07:13:08;;;;;;;11.38;4.65;;;;;;;23.36;40.66;102730.31;4844818;29;20057;-72
2021/10/13 07:15:34;;;;;;;10.32;4.57;;;;;;;23.34;40.58;102694.38;4861862;29;20032;-74
2021/10/13 07:17:59;;;;;;;18.35;5.30;;;;;;;23.41;40.64;102727.25;4861582;29;20033;-74
2021/10/13 07:20:26;;;;;;;12.68;4.53;;;;;;;23.36;40.51;102728.34;4861496;29;20081;-71
2021/10/13 07:22:51;;;;;;;10.05;5.28;;;;;;;23.43;40.63;102724.97;4861499;29;20029;-84
2021/10/13 07:25:22;;;;;;;11.35;4.90;;;;;;;23.37;40.58;102727.19;4861416;29;20053;-73
2021/10/13 07:27:48;;;;;;;6.43;4.80;;;;;;;23.37;40.72;102727.19;4861276;29;20365;-74
2021/10/13 07:30:18;;;;;;;7.60;4.35;;;;;;;23.42;40.29;102726.09;4844575;29;20041;-72
2021/10/13 07:32:44;;;;;;;6.10;4.07;;;;;;;23.33;40.42;102733.78;4861517;29;20104;-73
2021/10/13 07:35:10;;;;;;;10.10;4.70;;;;;;;23.41;40.61;102733.66;4861141;29;20556;-72
2021/10/13 07:37:36;;;;;;;12.57;4.68;;;;;;;23.44;40.32;102732.16;4861092;29;20170;-78
2021/10/13 07:40:04;;;;;;;11.70;4.88;;;;;;;23.43;40.41;102734.13;4861293;29;20036;-82
2021/10/13 07:42:32;;;;;;;6.35;4.30;;;;;;;23.50;40.28;102734.34;4861012;29;20108;-72
2021/10/13 07:44:58;;;;;;;15.18;8.15;;;;;;;23.47;40.42;102739.81;4860961;29;20514;-73
2021/10/13 07:47:24;;;;;;;12.40;4.30;;;;;;;23.51;40.58;102743.53;4861037;29;20060;-72
2021/10/13 07:49:50;;;;;;;11.52;4.13;;;;;;;23.48;40.19;102741.44;4844313;29;20098;-72
2021/10/13 07:52:16;;;;;;;14.60;6.07;;;;;;;23.52;40.33;102747.94;4861122;29;20033;-74
2021/10/13 07:54:41;;;;;;;17.35;4.55;;;;;;;23.50;40.13;102747.47;4863614;29;20549;-74
2021/10/13 07:57:07;;;;;;;13.05;4.97;;;;;;;23.52;40.07;102745.16;4860855;29;20064;-74
2021/10/13 07:59:32;;;;;;;10.50;4.65;;;;;;;23.63;40.10;102745.47;4864670;29;20041;-77
2021/10/13 08:01:58;;;;;;;14.27;5.20;;;;;;;23.53;39.80;102746.78;4879679;29;20062;-73
2021/10/13 08:04:25;;;;;;;8.68;4.75;;;;;;;23.43;40.18;102744.47;4862929;29;20451;-81
2021/10/13 08:06:52;;;;;;;12.05;4.38;;;;;;;23.54;40.05;102749.19;4879181;29;20085;-74
2021/10/13 08:09:17;;;;;;;8.45;4.80;;;;;;;23.41;39.95;102739.22;4846690;29;20392;-73
2021/10/13 08:11:44;;;;;;;10.02;4.75;;;;;;;23.51;39.82;102744.34;4860134;29;20037;-79
2021/10/13 08:14:10;;;;;;;11.43;4.20;;;;;;;23.57;39.66;102742.09;4860630;29;20037;-80
2021/10/13 08:16:36;;;;;;;11.00;4.82;;;;;;;23.56;39.49;102746.06;4860787;29;20072;-73
2021/10/13 08:19:01;;;;;;;7.57;4.38;;;;;;;23.59;39.65;102736.19;4860876;29;20057;-79
2021/10/13 08:21:27;;;;;;;8.45;5.10;;;;;;;23.67;39.66;102736.06;4860514;29;20440;-82
2021/10/13 08:23:53;;;;;;;9.98;4.82;;;;;;;23.65;39.45;102734.78;4860778;29;20113;-80
2021/10/13 08:26:19;;;;;;;13.63;4.72;;;;;;;23.69;39.38;102733.72;4860276;29;20477;-72
2021/10/13 08:28:44;;;;;;;6.75;4.13;;;;;;;23.71;39.46;102731.38;4867752;29;20045;-74
2021/10/13 08:31:10;;;;;;;8.38;4.05;;;;;;;23.77;39.10;102727.16;4861859;29;20029;-79
2021/10/13 08:33:36;;;;;;;11.80;4.78;;;;;;;23.81;39.41;102730.06;4872421;29;20029;-74
2021/10/13 08:36:02;;;;;;;16.42;4.65;;;;;;;23.77;39.25;102735.53;4878936;29;20384;-76
2021/10/13 08:38:28;;;;;;;9.55;4.07;;;;;;;23.88;39.14;102726.66;4879075;29;20033;-81
2021/10/13 08:40:53;;;;;;;9.13;4.03;;;;;;;23.85;39.01;102732.94;4878956;29;20440;-78
2021/10/13 08:43:19;;;;;;;12.02;5.15;;;;;;;23.88;38.87;102735.03;4878623;29;20116;-76
2021/10/13 08:45:44;;;;;;;10.05;3.85;;;;;;;23.86;39.21;102737.38;4878774;29;20045;-73
2021/10/13 08:48:10;;;;;;;11.65;4.57;;;;;;;23.85;39.13;102730.97;4868477;29;20120;-72
2021/10/13 08:50:38;;;;;;;6.20;3.97;;;;;;;23.85;38.76;102746.91;4869175;29;20034;-76
2021/10/13 08:53:16;;;;;;;9.07;4.25;;;;;;;23.83;38.98;102744.47;4867728;29;20037;-75
2021/10/13 08:55:43;;;;;;;9.15;4.95;;;;;;;23.93;38.62;102741.16;4867820;29;20060;-83
2021/10/13 08:58:16;;;;;;;8.52;4.97;;;;;;;23.84;38.70;102740.50;4867935;29;20382;-76
2021/10/13 09:00:45;;;;;;;12.93;4.63;;;;;;;23.85;38.97;102746.91;4867895;29;20388;-75
2021/10/13 09:03:31;;;;;;;8.63;4.35;;;;;;;23.92;38.60;102735.94;4867872;29;20025;-73
2021/10/13 09:05:59;;;;;;;8.40;4.57;;;;;;;23.86;39.02;102745.75;4878968;29;20651;-75
2021/10/13 09:08:25;;;;;;;8.15;5.47;;;;;;;23.87;38.83;102742.59;4878606;29;20044;-79
2021/10/13 09:10:55;;;;;;;8.48;5.05;;;;;;;23.90;38.58;102739.09;4878704;29;20104;-74
2021/10/13 09:13:22;;;;;;;11.70;5.85;;;;;;;23.73;39.19;102745.81;4878853;29;20031;-75
2021/10/13 09:15:53;;;;;;;10.13;4.88;;;;;;;23.71;39.04;102747.31;4878791;29;20464;-73
2021/10/13 09:18:22;;;;;;;10.13;5.45;;;;;;;23.57;39.56;102747.66;4878705;29;20021;-78
2021/10/13 09:20:50;;;;;;;7.97;4.90;;;;;;;23.72;39.34;102746.13;4878476;29;20036;-78
2021/10/13 09:23:26;;;;;;;8.48;4.88;;;;;;;23.74;38.84;102746.63;4879969;29;20053;-75
2021/10/13 09:26:04;;;;;;;10.60;5.07;;;;;;;23.76;38.96;102745.09;4882190;29;20032;-77
2021/10/13 09:28:30;;;;;;;6.97;4.60;;;;;;;23.83;38.77;102732.50;4881992;29;20033;-81
2021/10/13 09:30:55;;;;;;;9.13;4.50;;;;;;;23.70;38.83;102742.91;4865153;29;20033;-78
2021/10/13 09:33:21;;;;;;;7.57;4.55;;;;;;;23.86;38.58;102745.75;4881911;29;20048;-78
2021/10/13 09:35:49;;;;;;;8.75;4.05;;;;;;;23.69;38.77;102739.28;4882146;29;20045;-74
2021/10/13 09:38:23;;;;;;;6.88;4.47;;;;;;;23.80;38.86;102746.00;4881874;29;20119;-74
2021/10/13 09:40:58;;;;;;;6.82;4.40;;;;;;;23.77;38.69;102743.91;4881967;29;20033;-79
2021/10/13 09:43:34;;;;;;;17.30;5.45;;;;;;;23.79;38.82;102740.75;4881493;29;20445;-73
2021/10/13 09:46:03;;;;;;;10.25;5.55;;;;;;;23.82;38.53;102737.28;4881722;29;20054;-73
2021/10/13 09:48:28;;;;;;;12.60;5.72;;;;;;;23.90;38.42;102739.09;4881727;29;20738;-74
2021/10/13 09:50:54;;;;;;;6.80;4.88;;;;;;;23.83;38.61;102740.88;4881645;29;20129;-77
2021/10/13 09:53:27;;;;;;;6.93;4.10;;;;;;;23.90;38.69;102743.88;4881429;29;20052;-74
2021/10/13 09:55:53;;;;;;;8.35;4.45;;;;;;;24.01;38.39;102739.38;4881769;29;20037;-73
2021/10/13 09:58:27;;;;;;;8.68;4.78;;;;;;;23.99;38.13;102741.72;4881711;29;20033;-75
2021/10/13 10:01:14;;;;;;;6.40;4.70;;;;;;;23.99;38.34;102744.53;4881789;29;20033;-73
2021/10/13 10:03:43;;;;;;;5.80;4.28;;;;;;;24.06;38.26;102744.72;4881668;29;20025;-73
2021/10/13 10:06:09;;;;;;;5.97;4.65;;;;;;;24.00;38.44;102741.38;4881354;29;20057;-79
2021/10/13 10:09:05;;;;;;;5.30;3.88;;;;;;;23.85;38.54;102746.91;4881398;29;20037;-76
2021/10/13 10:11:33;;;;;;;6.35;3.70;;;;;;;23.87;38.40;102755.72;4865748;29;20568;-74
2021/10/13 10:14:00;;;;;;;6.90;4.35;;;;;;;23.87;38.08;102758.53;4881324;29;20025;-79
2021/10/13 10:16:31;;;;;;;6.72;4.03;;;;;;;23.69;38.03;102758.03;4881290;29;20037;-74
2021/10/13 10:19:20;;;;;;;8.52;4.63;;;;;;;23.75;37.79;102760.22;4864695;29;20029;-73
2021/10/13 10:21:55;;;;;;;3.95;3.40;;;;;;;23.70;37.22;102754.88;4881110;29;20508;-74
2021/10/13 10:24:29;;;;;;;6.22;3.90;;;;;;;23.73;37.19;102756.97;4881161;29;20029;-77
2021/10/13 10:27:32;;;;;;;5.50;3.95;;;;;;;23.62;37.16;102764.19;4880969;29;20424;-74
2021/10/13 10:30:07;;;;;;;8.30;4.47;;;;;;;23.34;37.96;102763.31;4881144;29;20417;-75
2021/10/13 10:32:33;;;;;;;11.88;4.90;;;;;;;23.74;37.33;102758.59;4880907;29;20025;-74
2021/10/13 10:35:05;;;;;;;7.13;4.45;;;;;;;23.34;38.16;102757.72;4880098;29;20017;-74
2021/10/13 10:37:43;;;;;;;9.77;4.38;;;;;;;23.65;37.83;102759.88;4881121;29;20479;-73
2021/10/13 10:40:20;;;;;;;11.60;4.85;;;;;;;23.68;37.78;102760.00;4881041;29;20029;-73
2021/10/13 10:42:51;;;;;;;8.68;4.00;;;;;;;23.61;37.49;102770.16;4880723;29;20392;-73
2021/10/13 10:45:20;;;;;;;7.05;4.22;;;;;;;23.56;37.96;102773.94;4880476;29;20053;-73
2021/10/13 10:47:50;;;;;;;7.38;3.85;;;;;;;23.74;37.49;102766.97;4880446;29;20040;-75
2021/10/13 10:50:38;;;;;;;6.80;4.90;;;;;;;23.84;37.25;102757.25;4880787;29;20483;-74
2021/10/13 10:53:13;;;;;;;7.65;4.13;;;;;;;24.00;37.36;102760.91;4880597;29;20077;-76
2021/10/13 10:55:41;;;;;;;6.63;4.00;;;;;;;23.94;37.22;102758.72;4880591;29;20029;-73
2021/10/13 10:58:20;;;;;;;6.00;4.43;;;;;;;24.07;36.77;102760.28;4880647;29;20396;-74
2021/10/13 11:01:10;;;;;;;5.72;4.28;;;;;;;23.79;37.08;102763.09;4880477;29;20036;-73
2021/10/13 11:03:36;;;;;;;;;;;;;;;23.85;37.27;102764.47;4880876;29;20049;-74
2021/10/13 11:06:29;;;;;;;6.80;3.97;;;;;;;23.84;37.47;102757.25;4880348;29;20363;-73
2021/10/13 11:09:08;;;;;;;5.72;3.95;;;;;;;23.90;37.20;102761.44;4880326;29;20036;-78
2021/10/13 11:11:42;;;;;;;11.75;5.20;;;;;;;23.84;37.21;102762.03;4880483;29;20033;-77
2021/10/13 11:14:21;;;;;;;7.43;4.30;;;;;;;23.83;37.50;102755.66;4880302;29;20484;-77
2021/10/13 11:16:54;;;;;;;6.20;4.40;;;;;;;24.00;37.02;102768.47;4880445;29;20124;-74
2021/10/13 11:19:31;;;;;;;6.57;4.05;;;;;;;23.97;37.21;102756.06;4880045;29;20032;-80
2021/10/13 11:21:56;;;;;;;7.10;4.45;;;;;;;24.09;36.78;102758.75;4880108;29;20492;-77
2021/10/13 11:24:22;;;;;;;9.55;4.68;;;;;;;23.90;37.54;102761.44;4863260;29;20084;-75
2021/10/13 11:26:48;;;;;;;7.65;4.40;;;;;;;24.00;37.32;102758.13;4880174;29;20416;-75
2021/10/13 11:29:19;;;;;;;13.98;5.43;;;;;;;23.97;37.23;102755.25;4879855;29;20025;-75
2021/10/13 11:31:46;;;;;;;9.27;3.92;;;;;;;24.12;37.01;102762.03;4879814;29;20509;-78